AFR123 LFPG-LFRB
Flight info
| Callsign | AFR123 |
|---|---|
| Flight time | 0h 58m |
| Altitude | 38000 |
| Route | LGL UN491 UPALO/N0454F370 UN585 FEJAC DCT BADUR T120 ANLEV |
| Aircraft | A333/H-SDE3GHIJ2J3J5M1RVWXY/LB2D1 |
Departure
| Time | 2026-05-05 16:15 |
|---|---|
| Airport | Charles de Gaulle International Airport (LFPG) |
Arrival
| Time | 2026-05-05 17:13 |
|---|---|
| Airport | Brest Bretagne airport (LFRB) |
| Time | Latitude | Longitude | Altitude | Speed | Heading |
|---|---|---|---|---|---|
| 2026-05-05 15:56 | 49.00052 | 2.56683 | 355 ft | 0 kts | 159° |
| 2026-05-05 16:11 | 49.00051 | 2.56683 | 355 ft | 0 kts | 159° |
| 2026-05-05 16:11 | 49.00112 | 2.56657 | 358 ft | 6 kts | 201° |
| 2026-05-05 16:12 | 49.00103 | 2.56643 | 357 ft | 14 kts | 217° |
| 2026-05-05 16:12 | 48.99913 | 2.56434 | 347 ft | 23 kts | 261° |
| 2026-05-05 16:13 | 48.99736 | 2.55510 | 333 ft | 29 kts | 249° |
| 2026-05-05 16:13 | 48.99709 | 2.55464 | 333 ft | 6 kts | 206° |
| 2026-05-05 16:13 | 48.99613 | 2.55525 | 335 ft | 26 kts | 135° |
| 2026-05-05 16:14 | 48.99632 | 2.56702 | 344 ft | 128 kts | 87° |
| 2026-05-05 16:14 | 48.99744 | 2.59786 | 877 ft | 196 kts | 86° |
| 2026-05-05 16:15 | 48.99998 | 2.63955 | 1957 ft | 243 kts | 83° |
| 2026-05-05 16:15 | 49.00485 | 2.69299 | 2479 ft | 303 kts | 82° |
| 2026-05-05 16:16 | 49.01013 | 2.76053 | 2971 ft | 333 kts | 90° |
| 2026-05-05 16:16 | 49.00037 | 2.82916 | 4163 ft | 336 kts | 115° |
| 2026-05-05 16:17 | 48.97044 | 2.87373 | 6532 ft | 278 kts | 162° |
| 2026-05-05 16:17 | 48.95196 | 2.87648 | 7159 ft | 268 kts | 190° |
| 2026-05-05 16:18 | 48.92077 | 2.84708 | 7458 ft | 272 kts | 230° |
| 2026-05-05 16:18 | 48.91001 | 2.82380 | 7132 ft | 268 kts | 237° |
| 2026-05-05 16:18 | 48.89213 | 2.77508 | 6359 ft | 268 kts | 252° |
| 2026-05-05 16:19 | 48.88918 | 2.74750 | 5985 ft | 268 kts | 265° |
| 2026-05-05 16:19 | 48.88725 | 2.71993 | 5579 ft | 267 kts | 264° |
| 2026-05-05 16:19 | 48.88314 | 2.66455 | 4972 ft | 268 kts | 264° |
| 2026-05-05 16:20 | 48.87871 | 2.61009 | 4500 ft | 266 kts | 262° |
| 2026-05-05 16:20 | 48.87412 | 2.55702 | 4323 ft | 266 kts | 264° |
| 2026-05-05 16:21 | 48.87057 | 2.50308 | 4161 ft | 266 kts | 265° |
| 2026-05-05 16:22 | 48.86725 | 2.42031 | 3949 ft | 266 kts | 268° |
| 2026-05-05 16:22 | 48.86644 | 2.36544 | 3824 ft | 265 kts | 270° |
| 2026-05-05 16:23 | 48.86676 | 2.31095 | 3712 ft | 264 kts | 271° |
| 2026-05-05 16:23 | 48.86734 | 2.28372 | 3658 ft | 264 kts | 272° |
| 2026-05-05 16:23 | 48.86934 | 2.22878 | 3554 ft | 264 kts | 274° |
| 2026-05-05 16:24 | 48.87078 | 2.20126 | 3504 ft | 263 kts | 275° |
| 2026-05-05 16:24 | 48.87248 | 2.17398 | 3457 ft | 263 kts | 276° |
| 2026-05-05 16:24 | 48.87628 | 2.11910 | 3409 ft | 262 kts | 271° |
| 2026-05-05 16:25 | 48.87535 | 2.09218 | 3474 ft | 263 kts | 261° |
| 2026-05-05 16:25 | 48.87046 | 2.03748 | 3354 ft | 264 kts | 264° |
| 2026-05-05 16:25 | 48.86891 | 2.01019 | 3247 ft | 263 kts | 265° |
| 2026-05-05 16:26 | 48.86550 | 1.95593 | 3041 ft | 262 kts | 264° |
| 2026-05-05 16:26 | 48.86137 | 1.90135 | 2865 ft | 261 kts | 263° |
| 2026-05-05 16:27 | 48.85910 | 1.87421 | 2836 ft | 261 kts | 263° |
| 2026-05-05 16:27 | 48.85678 | 1.84687 | 2810 ft | 261 kts | 263° |
| 2026-05-05 16:27 | 48.85444 | 1.81985 | 2787 ft | 261 kts | 263° |
| 2026-05-05 16:27 | 48.85205 | 1.79248 | 2767 ft | 261 kts | 262° |
| 2026-05-05 16:28 | 48.84964 | 1.76546 | 2750 ft | 261 kts | 262° |
| 2026-05-05 16:28 | 48.84717 | 1.73808 | 2735 ft | 261 kts | 262° |
| 2026-05-05 16:28 | 48.84470 | 1.71116 | 2722 ft | 260 kts | 262° |
| 2026-05-05 16:28 | 48.84217 | 1.68392 | 2713 ft | 260 kts | 262° |
| 2026-05-05 16:29 | 48.83962 | 1.65681 | 2706 ft | 260 kts | 262° |
| 2026-05-05 16:29 | 48.83702 | 1.62964 | 2702 ft | 260 kts | 262° |
| 2026-05-05 16:29 | 48.83440 | 1.60258 | 2701 ft | 260 kts | 262° |
| 2026-05-05 16:29 | 48.83172 | 1.57523 | 2713 ft | 260 kts | 262° |
| 2026-05-05 16:30 | 48.82903 | 1.54813 | 2735 ft | 260 kts | 262° |
| 2026-05-05 16:30 | 48.82633 | 1.52110 | 2760 ft | 261 kts | 262° |
| 2026-05-05 16:30 | 48.82361 | 1.49411 | 2789 ft | 261 kts | 262° |
| 2026-05-05 16:30 | 48.82082 | 1.46679 | 2822 ft | 261 kts | 262° |
| 2026-05-05 16:31 | 48.81804 | 1.43967 | 2859 ft | 261 kts | 261° |
| 2026-05-05 16:31 | 48.81522 | 1.41255 | 2900 ft | 261 kts | 261° |
| 2026-05-05 16:31 | 48.81241 | 1.38565 | 2944 ft | 261 kts | 261° |
| 2026-05-05 16:31 | 48.80953 | 1.35842 | 2993 ft | 261 kts | 261° |
| 2026-05-05 16:32 | 48.80666 | 1.33148 | 3045 ft | 262 kts | 261° |
| 2026-05-05 16:32 | 48.80375 | 1.30437 | 3099 ft | 262 kts | 261° |
| 2026-05-05 16:32 | 48.80082 | 1.27730 | 3154 ft | 262 kts | 260° |
| 2026-05-05 16:32 | 48.79787 | 1.25025 | 3209 ft | 262 kts | 261° |
| 2026-05-05 16:33 | 48.79625 | 1.22254 | 3236 ft | 262 kts | 267° |
| 2026-05-05 16:33 | 48.79549 | 1.19492 | 3274 ft | 263 kts | 267° |
| 2026-05-05 16:33 | 48.79474 | 1.16743 | 3312 ft | 263 kts | 267° |
| 2026-05-05 16:33 | 48.79396 | 1.13992 | 3353 ft | 263 kts | 267° |
| 2026-05-05 16:34 | 48.79316 | 1.11242 | 3395 ft | 263 kts | 267° |
| 2026-05-05 16:34 | 48.79230 | 1.08447 | 3441 ft | 263 kts | 267° |
| 2026-05-05 16:34 | 48.79142 | 1.05696 | 3487 ft | 263 kts | 267° |
| 2026-05-05 16:34 | 48.79048 | 1.02931 | 3537 ft | 263 kts | 267° |
| 2026-05-05 16:35 | 48.78951 | 1.00177 | 3589 ft | 264 kts | 267° |
| 2026-05-05 16:35 | 48.78849 | 0.97407 | 3644 ft | 264 kts | 266° |
| 2026-05-05 16:35 | 48.78743 | 0.94644 | 3701 ft | 264 kts | 266° |
| 2026-05-05 16:35 | 48.78631 | 0.91859 | 3762 ft | 264 kts | 266° |
| 2026-05-05 16:36 | 48.78515 | 0.89086 | 3826 ft | 265 kts | 266° |
| 2026-05-05 16:36 | 48.78395 | 0.86320 | 3893 ft | 265 kts | 266° |
| 2026-05-05 16:36 | 48.78271 | 0.83581 | 3962 ft | 265 kts | 266° |
| 2026-05-05 16:36 | 48.78142 | 0.80805 | 4036 ft | 265 kts | 266° |
| 2026-05-05 16:37 | 48.78007 | 0.78014 | 4114 ft | 266 kts | 266° |
| 2026-05-05 16:37 | 48.77867 | 0.75213 | 4195 ft | 266 kts | 266° |
| 2026-05-05 16:37 | 48.77723 | 0.72420 | 4281 ft | 266 kts | 265° |
| 2026-05-05 16:37 | 48.77583 | 0.69678 | 4369 ft | 266 kts | 267° |
| 2026-05-05 16:38 | 48.77652 | 0.66856 | 4446 ft | 267 kts | 275° |
| 2026-05-05 16:38 | 48.77819 | 0.64099 | 4514 ft | 267 kts | 276° |
| 2026-05-05 16:38 | 48.78077 | 0.61311 | 4557 ft | 268 kts | 282° |
| 2026-05-05 16:38 | 48.78462 | 0.58576 | 4551 ft | 268 kts | 282° |
| 2026-05-05 16:39 | 48.78843 | 0.55832 | 4503 ft | 268 kts | 282° |
| 2026-05-05 16:39 | 48.79232 | 0.53072 | 4462 ft | 267 kts | 281° |
| 2026-05-05 16:39 | 48.79350 | 0.50319 | 4586 ft | 266 kts | 267° |
| 2026-05-05 16:39 | 48.79271 | 0.47515 | 4728 ft | 268 kts | 269° |
| 2026-05-05 16:40 | 48.79277 | 0.44707 | 4893 ft | 269 kts | 275° |
| 2026-05-05 16:40 | 48.79508 | 0.41898 | 5119 ft | 269 kts | 281° |
| 2026-05-05 16:40 | 48.79924 | 0.39164 | 5349 ft | 269 kts | 287° |
| 2026-05-05 16:40 | 48.80514 | 0.36511 | 5575 ft | 269 kts | 291° |
| 2026-05-05 16:41 | 48.80940 | 0.33802 | 5897 ft | 269 kts | 271° |
| 2026-05-05 16:41 | 48.80954 | 0.30969 | 5936 ft | 270 kts | 269° |
| 2026-05-05 16:41 | 48.80933 | 0.28174 | 5956 ft | 269 kts | 270° |
| 2026-05-05 16:41 | 48.81033 | 0.25324 | 5945 ft | 268 kts | 275° |
| 2026-05-05 16:42 | 48.81179 | 0.22517 | 5952 ft | 268 kts | 274° |
| 2026-05-05 16:42 | 48.81305 | 0.19702 | 5962 ft | 268 kts | 273° |
| 2026-05-05 16:42 | 48.81408 | 0.16907 | 5974 ft | 268 kts | 272° |
| 2026-05-05 16:42 | 48.81490 | 0.14072 | 5989 ft | 268 kts | 272° |
| 2026-05-05 16:43 | 48.81548 | 0.11258 | 6007 ft | 268 kts | 271° |
| 2026-05-05 16:43 | 48.81585 | 0.08427 | 6024 ft | 268 kts | 271° |
| 2026-05-05 16:43 | 48.81656 | 0.05611 | 6025 ft | 268 kts | 273° |
| 2026-05-05 16:43 | 48.81792 | 0.02772 | 6018 ft | 268 kts | 275° |
| 2026-05-05 16:44 | 48.81965 | -0.00033 | 6014 ft | 268 kts | 276° |
| 2026-05-05 16:44 | 48.82171 | -0.02804 | 6015 ft | 268 kts | 277° |
| 2026-05-05 16:44 | 48.82419 | -0.05632 | 6019 ft | 268 kts | 278° |
| 2026-05-05 16:44 | 48.82495 | -0.06427 | 6021 ft | 268 kts | 278° |
| 2026-05-05 17:04 | 48.82658 | -0.08016 | 6025 ft | 268 kts | 279° |
| 2026-05-05 17:04 | 48.82973 | -0.10812 | 6037 ft | 268 kts | 280° |
| 2026-05-05 17:04 | 48.88246 | -1.26942 | 6395 ft | 258 kts | 281° |
| 2026-05-05 17:04 | 48.94482 | -2.20030 | 6604 ft | 269 kts | 282° |
| 2026-05-05 17:05 | 48.94735 | -2.22650 | 6994 ft | 269 kts | 264° |
| 2026-05-05 17:05 | 48.94459 | -2.25327 | 7577 ft | 269 kts | 266° |
| 2026-05-05 17:05 | 48.94340 | -2.27979 | 7361 ft | 273 kts | 263° |
| 2026-05-05 17:05 | 48.93980 | -2.30672 | 6954 ft | 273 kts | 257° |
| 2026-05-05 17:06 | 48.61800 | -3.61383 | 6447 ft | 266 kts | 256° |
| 2026-05-05 17:06 | 48.61356 | -3.64035 | 6247 ft | 268 kts | 255° |
| 2026-05-05 17:06 | 48.60849 | -3.66748 | 5594 ft | 276 kts | 253° |
| 2026-05-05 17:06 | 48.60309 | -3.69526 | 4664 ft | 282 kts | 253° |
| 2026-05-05 17:07 | 48.59745 | -3.72397 | 3770 ft | 290 kts | 253° |
| 2026-05-05 17:07 | 48.59184 | -3.75244 | 3074 ft | 283 kts | 253° |
| 2026-05-05 17:07 | 48.58624 | -3.78072 | 2477 ft | 275 kts | 253° |
| 2026-05-05 17:07 | 48.58094 | -3.80740 | 2003 ft | 264 kts | 253° |
| 2026-05-05 17:08 | 48.57579 | -3.83369 | 1855 ft | 256 kts | 253° |
| 2026-05-05 17:08 | 48.57073 | -3.85895 | 1748 ft | 248 kts | 253° |
| 2026-05-05 17:08 | 48.56543 | -3.88258 | 1672 ft | 230 kts | 244° |
| 2026-05-05 17:08 | 48.55895 | -3.90396 | 1551 ft | 220 kts | 247° |
| 2026-05-05 17:09 | 48.55308 | -3.92579 | 1462 ft | 233 kts | 248° |
| 2026-05-05 17:09 | 48.54678 | -3.94896 | 1477 ft | 246 kts | 247° |
| 2026-05-05 17:09 | 48.53965 | -3.97388 | 1584 ft | 274 kts | 246° |
| 2026-05-05 17:09 | 48.53161 | -4.00082 | 1764 ft | 291 kts | 245° |
| 2026-05-05 17:10 | 48.52308 | -4.02839 | 2080 ft | 277 kts | 245° |
| 2026-05-05 17:10 | 48.51539 | -4.05269 | 2350 ft | 236 kts | 244° |
| 2026-05-05 17:10 | 48.50868 | -4.07374 | 2452 ft | 214 kts | 244° |
| 2026-05-05 17:10 | 48.50275 | -4.09352 | 2456 ft | 202 kts | 248° |
| 2026-05-05 17:11 | 48.49779 | -4.11273 | 2315 ft | 200 kts | 249° |
| 2026-05-05 17:11 | 48.49257 | -4.13260 | 2023 ft | 205 kts | 249° |
| 2026-05-05 17:11 | 48.48766 | -4.15272 | 1875 ft | 202 kts | 253° |
| 2026-05-05 17:11 | 48.48448 | -4.17315 | 1769 ft | 197 kts | 262° |
| 2026-05-05 17:12 | 48.48365 | -4.19347 | 1716 ft | 191 kts | 269° |
| 2026-05-05 17:12 | 48.48359 | -4.21354 | 1677 ft | 200 kts | 271° |
| 2026-05-05 17:12 | 48.46627 | -4.33713 | 1275 ft | 197 kts | 251° |
| 2026-05-05 17:12 | 48.46215 | -4.35597 | 967 ft | 179 kts | 252° |
| 2026-05-05 17:13 | 48.45848 | -4.37265 | 605 ft | 161 kts | 251° |
| 2026-05-05 17:13 | 48.45499 | -4.38741 | 428 ft | 144 kts | 250° |
| 2026-05-05 17:13 | 48.45169 | -4.40181 | 307 ft | 132 kts | 252° |
| 2026-05-05 17:13 | 48.44983 | -4.41008 | 322 ft | 13 kts | 252° |
| 2026-05-05 17:14 | 48.44955 | -4.41132 | 325 ft | 23 kts | 251° |
| 2026-05-05 17:14 | 48.44915 | -4.41279 | 325 ft | 1 kts | 239° |
| 2026-05-05 17:14 | 48.44914 | -4.41282 | 325 ft | 2 kts | 238° |
| 2026-05-05 17:15 | 48.44898 | -4.41311 | 325 ft | 13 kts | 218° |
| 2026-05-05 17:15 | 48.44741 | -4.41387 | 324 ft | 6 kts | 257° |
| 2026-05-05 17:15 | 48.44740 | -4.41420 | 323 ft | 13 kts | 266° |
| 2026-05-05 17:15 | 48.44700 | -4.41595 | 322 ft | 13 kts | 231° |
| 2026-05-05 17:16 | 48.44644 | -4.41711 | 320 ft | 14 kts | 244° |
| 2026-05-05 17:16 | 48.44596 | -4.41912 | 317 ft | 30 kts | 255° |
| 2026-05-05 17:16 | 48.44544 | -4.41987 | 315 ft | 10 kts | 189° |
| 2026-05-05 17:16 | 48.44447 | -4.42012 | 315 ft | 1 kts | 191° |
| 2026-05-05 17:23 | 49.00051 | 2.56683 | 359 ft | 0 kts | 159° |
| 2026-05-05 17:24 | 49.00053 | 2.56682 | 359 ft | 1 kts | 159° |
| 2026-05-05 17:24 | 49.00074 | 2.56669 | 359 ft | 6 kts | 159° |
| 2026-05-05 17:25 | 49.00116 | 2.56649 | 360 ft | 8 kts | 195° |
| 2026-05-05 17:25 | 49.00116 | 2.56646 | 360 ft | 3 kts | 216° |
| 2026-05-05 17:25 | 49.00019 | 2.56583 | 357 ft | 28 kts | 182° |
| 2026-05-05 17:25 | 48.99897 | 2.56461 | 351 ft | 35 kts | 267° |